Time;durP1;ratioP1;P1;durP2;ratioP2;P2;SDS_P1;SDS_P2;PMS_P1;PMS_P2;Temp;Humidity;BMP_temperature;BMP_pressure;BME280_temperature;BME280_humidity;BME280_pressure;Samples;Min_cycle;Max_cycle;Signal;HPM_P1;HPM_P2
2023/12/16 00:00:57;;;;;;;0.88;0.47;;;;;;;8.97;47.19;99931.28;6251994;22;20046;-91
2023/12/16 00:03:23;;;;;;;1.92;0.57;;;;;;;9.35;46.25;99996.69;6254124;22;20442;-91
2023/12/16 00:05:49;;;;;;;1.00;0.50;;;;;;;8.86;47.26;99929.56;6254244;22;20102;-93
2023/12/16 00:08:15;;;;;;;1.33;0.40;;;;;;;8.90;46.16;99981.72;6253701;22;20003;-91
2023/12/16 00:10:41;;;;;;;3.40;0.50;;;;;;;9.05;46.94;99994.97;6253887;22;20035;-91
2023/12/16 00:13:07;;;;;;;1.67;0.50;;;;;;;8.67;46.39;99944.59;6253156;22;20024;-92
2023/12/16 00:15:34;;;;;;;2.40;0.50;;;;;;;8.52;47.07;99956.06;6252131;22;20476;-90
2023/12/16 00:18:00;;;;;;;0.88;0.43;;;;;;;8.09;47.68;99905.66;6253192;22;20019;-91
2023/12/16 00:20:26;;;;;;;3.28;0.47;;;;;;;8.95;47.91;100041.81;6253237;22;20024;-91
2023/12/16 00:22:52;;;;;;;1.30;0.30;;;;;;;9.08;47.45;100049.78;6253419;22;19999;-91
2023/12/16 00:25:18;;;;;;;4.43;0.55;;;;;;;8.91;48.48;100016.19;6253331;22;20063;-93
2023/12/16 00:27:45;;;;;;;1.00;0.43;;;;;;;8.45;47.99;99911.91;6252695;22;20016;-92
2023/12/16 00:30:11;;;;;;;4.65;0.90;;;;;;;7.73;48.39;99835.88;6248551;22;20081;-90
2023/12/16 00:32:39;;;;;;;2.75;0.50;;;;;;;8.69;48.75;100012.66;6253119;22;20311;-91
2023/12/16 00:35:07;;;;;;;0.50;0.30;;;;;;;9.05;49.13;100048.03;6253534;22;20434;-92
2023/12/16 00:37:33;;;;;;;1.52;0.57;;;;;;;8.87;49.06;99992.31;6253427;22;20028;-92
2023/12/16 00:39:59;;;;;;;2.20;0.95;;;;;;;8.63;49.19;99965.81;6273055;22;20368;-90
2023/12/16 00:42:24;;;;;;;1.60;0.50;;;;;;;8.56;49.32;99968.44;6284273;22;20026;-93
2023/12/16 00:44:50;;;;;;;1.40;0.30;;;;;;;9.00;49.86;100050.69;6284394;22;20076;-92
2023/12/16 00:47:16;;;;;;;0.73;0.35;;;;;;;8.53;49.91;100026.78;6279297;22;20015;-93
2023/12/16 00:49:43;;;;;;;1.23;0.50;;;;;;;8.26;50.10;99951.59;6283611;22;20007;-93
2023/12/16 00:52:09;;;;;;;4.68;0.80;;;;;;;7.96;49.42;99910.06;6283042;22;20022;-93
2023/12/16 00:54:35;;;;;;;0.80;0.40;;;;;;;8.55;50.06;100006.47;6282518;22;20023;-90
2023/12/16 00:57:01;;;;;;;1.08;0.40;;;;;;;8.33;50.04;99987.84;6281803;22;20032;-89
2023/12/16 00:59:26;;;;;;;1.75;0.20;;;;;;;8.72;50.21;100054.19;6283622;22;20030;-92
2023/12/16 01:01:52;;;;;;;0.93;0.20;;;;;;;8.67;49.75;100037.41;6280233;22;20050;-93
2023/12/16 01:04:18;;;;;;;2.78;0.43;;;;;;;8.00;50.18;99915.38;6283122;22;20023;-92
2023/12/16 01:06:45;;;;;;;0.82;0.43;;;;;;;8.47;49.64;99974.63;6283306;22;20039;-92
2023/12/16 01:09:11;;;;;;;1.52;0.50;;;;;;;8.61;49.85;100064.81;6282296;22;20019;-90
2023/12/16 01:11:37;;;;;;;2.65;1.02;;;;;;;8.88;49.90;100082.50;6282133;22;20023;-91
2023/12/16 01:14:03;;;;;;;1.45;0.45;;;;;;;8.58;49.98;100023.25;6283068;22;20019;-90
2023/12/16 01:16:29;;;;;;;1.05;0.47;;;;;;;8.92;49.75;100080.75;6280136;22;20019;-91
2023/12/16 01:18:55;;;;;;;1.00;0.55;;;;;;;8.57;50.97;100031.22;6282867;22;20031;-90
2023/12/16 01:21:20;;;;;;;1.40;0.60;;;;;;;9.01;50.32;100128.50;6282405;22;20023;-91
2023/12/16 01:23:48;;;;;;;3.00;0.50;;;;;;;8.56;51.13;100055.94;6283004;22;20407;-92
2023/12/16 01:26:13;;;;;;;2.33;0.50;;;;;;;8.72;51.97;100105.50;6310882;22;20015;-93
2023/12/16 01:28:39;;;;;;;3.50;0.40;;;;;;;7.91;51.55;99968.31;6283621;22;20069;-90
2023/12/16 01:31:05;;;;;;;0.80;0.45;;;;;;;8.86;51.73;100096.66;6281085;22;20023;-91
2023/12/16 01:33:31;;;;;;;1.08;0.45;;;;;;;8.66;51.66;100064.81;6284527;22;20039;-93
2023/12/16 01:35:57;;;;;;;2.30;0.40;;;;;;;8.61;52.19;100081.59;6282566;22;20027;-89
2023/12/16 01:38:23;;;;;;;2.72;0.70;;;;;;;7.92;51.67;100009.81;6281557;22;20022;-91
2023/12/16 01:40:51;;;;;;;2.53;0.70;;;;;;;8.34;51.68;100047.03;6252679;22;20020;-91
2023/12/16 01:43:17;;;;;;;2.28;0.65;;;;;;;8.19;52.38;100009.00;6253186;22;20002;-92
2023/12/16 01:45:43;;;;;;;3.22;0.50;;;;;;;7.76;52.02;99952.38;6248155;22;20048;-91
2023/12/16 01:48:11;;;;;;;2.92;0.60;;;;;;;7.84;51.35;99966.53;6251975;22;20024;-92
2023/12/16 01:50:37;;;;;;;1.20;0.45;;;;;;;8.46;51.05;100017.94;6252022;22;20016;-91
2023/12/16 01:53:05;;;;;;;1.85;0.40;;;;;;;8.68;51.55;100108.13;6253095;22;20027;-91
2023/12/16 01:55:32;;;;;;;0.80;0.40;;;;;;;7.90;51.85;99978.91;6252292;22;20016;-91
2023/12/16 01:58:01;;;;;;;4.13;0.47;;;;;;;8.47;51.44;100063.88;6252258;22;20028;-90
2023/12/16 02:00:29;;;;;;;0.60;0.30;;;;;;;8.70;51.47;100077.19;6248527;22;20349;-91
2023/12/16 02:02:55;;;;;;;2.40;0.65;;;;;;;8.64;51.08;100070.97;6279852;22;20435;-92
2023/12/16 02:05:21;;;;;;;4.80;0.50;;;;;;;8.33;51.39;100037.34;6252606;22;20030;-90
2023/12/16 02:07:47;;;;;;;2.38;0.88;;;;;;;7.97;50.90;99994.81;6254212;22;20442;-89
2023/12/16 02:10:13;;;;;;;1.95;0.52;;;;;;;8.31;50.82;100036.44;6254761;22;20133;-91
2023/12/16 02:12:39;;;;;;;1.80;0.43;;;;;;;8.61;51.03;100080.72;6254885;22;20027;-92
2023/12/16 02:15:07;;;;;;;1.17;0.47;;;;;;;8.33;50.98;100085.91;6250968;22;20023;-91
2023/12/16 02:17:33;;;;;;;2.15;0.57;;;;;;;8.54;50.90;100063.88;6254631;22;20019;-93
2023/12/16 02:19:58;;;;;;;5.28;0.70;;;;;;;8.57;51.59;100076.28;6254250;22;20020;-91
2023/12/16 02:22:24;;;;;;;3.60;0.40;;;;;;;8.33;52.23;100070.00;6253087;22;20022;-92
2023/12/16 02:24:53;;;;;;;3.05;0.60;;;;;;;8.09;50.89;100039.03;6254042;22;20020;-90
2023/12/16 02:27:18;;;;;;;1.98;0.50;;;;;;;7.81;50.91;100006.25;6254372;22;20016;-90
2023/12/16 02:29:44;;;;;;;0.52;0.30;;;;;;;8.40;51.61;100082.44;6253014;22;20026;-92
2023/12/16 02:32:10;;;;;;;1.98;0.45;;;;;;;8.76;51.00;100101.97;6250945;22;20019;-92
2023/12/16 02:34:36;;;;;;;2.70;0.30;;;;;;;7.66;52.35;99938.22;6254078;22;20042;-90
2023/12/16 02:37:05;;;;;;;0.55;0.20;;;;;;;8.60;49.70;100089.53;6255206;22;20020;-93
2023/12/16 02:39:32;;;;;;;0.93;0.52;;;;;;;8.41;50.02;100102.78;6254462;22;20023;-91
2023/12/16 02:41:59;;;;;;;1.88;0.63;;;;;;;7.95;49.69;100038.06;6254389;22;20114;-92
2023/12/16 02:44:25;;;;;;;0.40;0.40;;;;;;;8.51;49.45;100069.19;6253961;22;20050;-93
2023/12/16 02:46:51;;;;;;;1.15;0.40;;;;;;;7.76;48.57;100010.63;6252252;22;20019;-92
2023/12/16 02:49:16;;;;;;;1.38;0.30;;;;;;;8.67;48.56;100157.59;6255465;22;20019;-91
2023/12/16 02:51:42;;;;;;;4.53;0.63;;;;;;;8.44;48.65;100115.13;6253920;22;20720;-91
2023/12/16 02:54:08;;;;;;;1.05;0.40;;;;;;;8.79;47.33;100140.88;6253861;22;20023;-92
2023/12/16 02:56:34;;;;;;;0.93;0.50;;;;;;;8.58;47.09;100084.22;6253720;22;20019;-92
2023/12/16 02:59:01;;;;;;;1.25;0.40;;;;;;;8.49;48.65;100099.25;6253851;22;20047;-93
2023/12/16 03:01:27;;;;;;;2.65;0.73;;;;;;;8.32;48.08;100075.28;6250312;22;20102;-92
2023/12/16 03:03:53;;;;;;;2.20;0.30;;;;;;;8.78;47.33;100134.69;6252976;22;20014;-92
2023/12/16 03:06:19;;;;;;;1.92;0.47;;;;;;;7.95;47.45;99998.34;6254556;22;20426;-91
2023/12/16 03:08:45;;;;;;;2.03;0.47;;;;;;;8.70;47.44;100132.88;6254026;22;20023;-91
2023/12/16 03:11:11;;;;;;;1.85;0.40;;;;;;;7.83;47.46;100020.38;6253887;22;20465;-92
2023/12/16 03:13:37;;;;;;;3.20;0.40;;;;;;;7.54;48.13;99954.94;6255818;22;20450;-93
2023/12/16 03:16:05;;;;;;;0.82;0.38;;;;;;;8.55;47.63;100092.19;6253532;22;20055;-93
2023/12/16 03:18:30;;;;;;;0.65;0.32;;;;;;;8.45;48.19;100086.84;6254358;22;20022;-92
2023/12/16 03:20:56;;;;;;;3.60;0.60;;;;;;;8.38;47.74;100118.59;6255861;22;20023;-93
2023/12/16 03:23:22;;;;;;;1.50;0.40;;;;;;;8.62;47.83;100119.59;6256986;22;20075;-92
2023/12/16 03:25:48;;;;;;;1.60;0.47;;;;;;;8.51;47.78;100103.66;6254721;22;20111;-92
2023/12/16 03:28:14;;;;;;;2.60;0.32;;;;;;;8.35;46.82;100068.25;6256580;22;20103;-93
2023/12/16 03:30:40;;;;;;;2.20;0.35;;;;;;;8.73;46.50;100131.09;6254236;22;20444;-93
2023/12/16 03:33:08;;;;;;;1.02;0.28;;;;;;;8.99;46.44;100136.47;6255095;22;20019;-93
2023/12/16 03:35:34;;;;;;;1.48;0.35;;;;;;;8.18;46.46;100047.00;6256429;22;20098;-91
2023/12/16 03:38:00;;;;;;;1.00;0.30;;;;;;;7.54;46.28;99911.72;6256111;22;20453;-93
2023/12/16 03:40:26;;;;;;;2.40;0.43;;;;;;;8.13;46.73;100018.69;6254642;22;20011;-92
2023/12/16 03:42:52;;;;;;;1.55;0.35;;;;;;;8.94;46.74;100138.22;6255656;22;20010;-95
2023/12/16 03:45:17;;;;;;;1.50;0.82;;;;;;;8.26;47.07;100035.53;6250956;22;20156;-92
2023/12/16 03:47:43;;;;;;;3.15;0.52;;;;;;;8.12;47.64;100020.47;6253648;22;20020;-93
2023/12/16 03:50:10;;;;;;;2.95;0.25;;;;;;;8.03;49.36;100110.53;6253440;22;20087;-92
2023/12/16 03:52:36;;;;;;;0.88;0.40;;;;;;;7.43;48.99;99971.66;6254542;22;20039;-93
2023/12/16 03:55:03;;;;;;;3.08;0.40;;;;;;;7.66;47.56;100001.78;6254073;22;20358;-93
2023/12/16 03:57:30;;;;;;;1.35;0.40;;;;;;;8.10;48.10;100038.13;6254127;22;20024;-92
2023/12/16 03:59:56;;;;;;;0.63;0.35;;;;;;;8.11;48.55;100039.00;6254059;22;20027;-93
2023/12/16 04:02:22;;;;;;;6.32;0.40;;;;;;;8.26;50.04;100115.91;6252371;22;20023;-94
2023/12/16 04:04:48;;;;;;;0.73;0.43;;;;;;;7.96;51.14;100088.41;6253823;22;20023;-93
2023/12/16 04:07:15;;;;;;;1.02;0.40;;;;;;;7.88;50.89;100076.91;6253490;22;20024;-93
2023/12/16 04:09:41;;;;;;;3.42;0.52;;;;;;;7.56;50.98;100096.13;6253027;22;20047;-94
2023/12/16 04:12:07;;;;;;;1.30;0.50;;;;;;;7.60;51.58;100046.75;6253280;22;20434;-94
2023/12/16 04:14:36;;;;;;;3.38;0.38;;;;;;;7.34;50.98;100044.81;6253207;22;20027;-94
2023/12/16 04:17:02;;;;;;;0.98;0.30;;;;;;;7.39;50.39;100059.00;6251343;22;20016;-93
2023/12/16 04:19:28;;;;;;;1.20;0.55;;;;;;;7.22;49.73;100006.81;6252718;22;20047;-92
2023/12/16 04:21:53;;;;;;;0.57;0.30;;;;;;;7.28;49.15;99988.34;6252533;22;20007;-94
2023/12/16 04:24:21;;;;;;;2.35;0.40;;;;;;;7.70;50.24;100034.41;6252878;22;20349;-94
2023/12/16 04:26:46;;;;;;;2.03;0.32;;;;;;;7.18;50.50;99969.78;6251763;22;20319;-92
2023/12/16 04:29:13;;;;;;;1.30;0.52;;;;;;;8.22;48.03;100148.59;6250399;22;20442;-93
2023/12/16 04:31:38;;;;;;;0.68;0.38;;;;;;;8.28;48.16;100132.69;6247485;22;20024;-92
2023/12/16 04:34:04;;;;;;;1.33;0.30;;;;;;;8.16;45.95;100077.03;6252643;22;20085;-94
2023/12/16 04:36:30;;;;;;;1.08;0.60;;;;;;;8.43;47.24;100103.63;6253089;22;20024;-93
2023/12/16 04:38:56;;;;;;;1.10;0.50;;;;;;;8.46;48.54;100169.06;6258923;22;20015;-94
2023/12/16 04:41:23;;;;;;;0.50;0.30;;;;;;;8.37;49.10;100131.84;6283813;22;20377;-93
2023/12/16 04:43:50;;;;;;;0.30;0.30;;;;;;;8.07;48.57;100075.22;6284160;22;20102;-93
2023/12/16 04:46:20;;;;;;;0.65;0.50;;;;;;;7.37;50.20;100042.22;6281362;22;20114;-93
2023/12/16 04:48:46;;;;;;;;;;;;;;;7.95;48.93;100168.75;6284471;22;20029;-90
2023/12/16 04:51:12;;;;;;;1.48;0.50;;;;;;;7.98;49.30;100165.22;6283874;22;19950;-93
2023/12/16 04:53:38;;;;;;;0.75;0.32;;;;;;;7.31;46.78;100010.41;6284851;22;20019;-90
2023/12/16 04:56:04;;;;;;;1.63;0.30;;;;;;;7.44;45.79;100000.78;6285016;22;20121;-91
2023/12/16 04:58:32;;;;;;;0.60;0.25;;;;;;;8.21;45.66;100076.13;6284949;22;20025;-91
2023/12/16 05:00:58;;;;;;;0.50;0.35;;;;;;;8.28;45.64;100063.78;6282529;22;20029;-92
2023/12/16 05:03:24;;;;;;;0.80;0.38;;;;;;;7.86;45.80;100051.28;6289071;22;20010;-94
2023/12/16 05:05:50;;;;;;;0.82;0.68;;;;;;;8.16;45.29;100039.94;6288307;22;20043;-92
2023/12/16 05:08:17;;;;;;;0.40;0.20;;;;;;;8.80;45.46;100209.84;6287184;22;20019;-94
2023/12/16 05:10:45;;;;;;;2.50;0.30;;;;;;;8.20;45.97;100115.91;6284858;22;20026;-92
2023/12/16 05:13:12;;;;;;;0.20;0.20;;;;;;;8.49;46.04;100125.75;6286871;22;20072;-92
2023/12/16 05:15:39;;;;;;;0.82;0.30;;;;;;;8.86;46.07;100177.13;6285096;22;20023;-92
2023/12/16 05:18:06;;;;;;;1.48;0.40;;;;;;;8.09;46.70;100032.81;6284827;22;20027;-90
2023/12/16 05:20:34;;;;;;;0.63;0.30;;;;;;;8.63;47.33;100171.72;6284740;22;20045;-93
2023/12/16 05:23:00;;;;;;;1.25;0.43;;;;;;;7.73;47.65;100055.63;6285750;22;20019;-92
2023/12/16 05:25:27;;;;;;;3.28;0.95;;;;;;;8.85;48.36;100220.47;6283647;22;20030;-92
2023/12/16 05:27:53;;;;;;;0.55;0.28;;;;;;;8.62;47.90;100210.63;6283801;22;20054;-91
2023/12/16 05:30:19;;;;;;;0.90;0.40;;;;;;;8.75;48.68;100210.69;6285374;22;20076;-90
2023/12/16 05:32:46;;;;;;;0.75;0.40;;;;;;;8.95;48.44;100208.09;6285208;22;20011;-90
2023/12/16 05:35:12;;;;;;;1.10;0.55;;;;;;;8.01;49.39;100130.81;6284740;22;20019;-92
2023/12/16 05:37:38;;;;;;;1.67;0.98;;;;;;;8.29;49.21;100115.06;6285037;22;20471;-94
2023/12/16 05:40:05;;;;;;;2.75;0.65;;;;;;;8.52;50.12;100141.66;6264295;22;20019;-91
2023/12/16 05:42:31;;;;;;;1.70;0.50;;;;;;;7.73;50.17;100071.53;6255260;22;20008;-92
2023/12/16 05:44:57;;;;;;;1.05;0.35;;;;;;;7.83;50.77;100073.34;6253955;22;20024;-91
2023/12/16 05:47:23;;;;;;;0.85;0.50;;;;;;;8.27;51.26;100115.03;6278901;22;20022;-91
2023/12/16 05:49:50;;;;;;;0.80;0.45;;;;;;;8.05;51.00;100062.84;6254268;22;20111;-91
2023/12/16 05:52:16;;;;;;;1.48;0.50;;;;;;;8.66;50.74;100147.91;6256265;22;20073;-91
2023/12/16 05:54:42;;;;;;;1.40;0.30;;;;;;;8.53;51.76;100181.44;6253951;22;20024;-92
2023/12/16 05:57:08;;;;;;;0.65;0.65;;;;;;;8.43;51.38;100184.91;6253902;22;20331;-91
2023/12/16 05:59:34;;;;;;;2.38;0.40;;;;;;;8.95;51.01;100259.38;6255555;22;20110;-93
2023/12/16 06:02:00;;;;;;;3.20;0.40;;;;;;;8.39;51.85;100173.41;6253616;22;20346;-93
2023/12/16 06:04:26;;;;;;;0.85;0.30;;;;;;;8.48;51.23;100176.97;6255510;22;20077;-95
2023/12/16 06:06:53;;;;;;;1.10;0.45;;;;;;;8.63;53.08;100244.25;6255606;22;20385;-92
2023/12/16 06:09:19;;;;;;;1.70;0.30;;;;;;;8.48;51.31;100212.38;6254559;22;20500;-92
2023/12/16 06:11:44;;;;;;;1.23;0.30;;;;;;;8.12;51.80;100125.56;6255659;22;20020;-90
2023/12/16 06:14:10;;;;;;;0.95;0.63;;;;;;;8.12;51.51;100130.88;6257513;22;20030;-92
2023/12/16 06:16:36;;;;;;;0.95;0.38;;;;;;;8.42;50.87;100186.69;6283794;22;20501;-92
2023/12/16 06:19:02;;;;;;;0.60;0.25;;;;;;;8.33;50.69;100167.19;6258907;22;20019;-92
2023/12/16 06:21:29;;;;;;;1.02;0.52;;;;;;;7.83;50.17;100078.66;6258189;22;20019;-93
2023/12/16 06:23:58;;;;;;;0.73;0.30;;;;;;;8.48;51.56;100191.16;6258037;22;20111;-92
2023/12/16 06:26:24;;;;;;;0.90;0.30;;;;;;;8.00;51.02;100129.03;6258842;22;20323;-91
2023/12/16 06:28:50;;;;;;;0.98;0.38;;;;;;;8.25;51.68;100201.59;6255894;22;20050;-91
2023/12/16 06:31:16;;;;;;;1.00;0.52;;;;;;;8.31;52.12;100233.44;6251814;22;20026;-91
2023/12/16 06:33:42;;;;;;;2.40;0.40;;;;;;;8.49;53.10;100251.22;6253613;22;20027;-92
2023/12/16 06:36:08;;;;;;;1.90;0.55;;;;;;;8.54;51.92;100238.00;6254919;22;20350;-92
2023/12/16 06:38:34;;;;;;;5.15;0.60;;;;;;;8.59;52.51;100223.00;6257454;22;20024;-92
2023/12/16 06:41:02;;;;;;;0.93;0.38;;;;;;;8.31;52.26;100156.59;6289087;22;20019;-93
2023/12/16 06:43:28;;;;;;;1.90;0.30;;;;;;;8.70;51.87;100221.28;6294016;22;20480;-95
2023/12/16 06:45:54;;;;;;;1.67;0.30;;;;;;;7.55;52.36;100089.06;6291018;22;20019;-92
2023/12/16 06:48:20;;;;;;;0.60;0.40;;;;;;;8.44;51.79;100242.38;6289444;22;20015;-94
2023/12/16 06:50:46;;;;;;;6.25;0.50;;;;;;;8.32;52.29;100235.19;6289912;22;20030;-93
2023/12/16 06:53:12;;;;;;;0.17;0.15;;;;;;;8.47;52.35;100252.09;6291125;22;20019;-94
2023/12/16 06:55:38;;;;;;;0.85;0.32;;;;;;;7.86;52.61;100163.41;6291724;22;20015;-92
2023/12/16 06:58:05;;;;;;;1.10;0.50;;;;;;;8.32;52.22;100236.97;6287559;22;20015;-93
2023/12/16 07:00:31;;;;;;;2.63;0.50;;;;;;;7.96;52.67;100130.81;6287457;22;20016;-94
2023/12/16 07:02:57;;;;;;;0.93;0.52;;;;;;;7.93;51.79;100116.66;6290614;22;20026;-93
2023/12/16 07:05:23;;;;;;;3.83;0.45;;;;;;;7.95;52.36;100110.47;6290253;22;20375;-94
2023/12/16 07:07:49;;;;;;;0.38;0.30;;;;;;;8.49;51.71;100197.34;6293295;22;20023;-91
2023/12/16 07:10:15;;;;;;;2.13;0.47;;;;;;;7.73;53.24;100159.78;6287715;22;20019;-92
2023/12/16 07:12:41;;;;;;;1.60;0.60;;;;;;;7.92;53.10;100173.16;6286122;22;20003;-93
2023/12/16 07:15:10;;;;;;;2.40;0.52;;;;;;;8.34;52.20;100214.88;6283908;22;20019;-93
2023/12/16 07:17:36;;;;;;;7.93;1.58;;;;;;;8.73;51.24;100229.25;6285525;22;20437;-92
2023/12/16 07:20:02;;;;;;;1.85;0.40;;;;;;;8.26;51.54;100216.59;6285197;22;20049;-93
2023/12/16 07:22:29;;;;;;;1.33;0.40;;;;;;;8.53;51.86;100180.56;6289202;22;20019;-94
2023/12/16 07:24:55;;;;;;;0.90;0.38;;;;;;;7.81;51.59;100123.66;6289549;22;20027;-92
2023/12/16 07:27:22;;;;;;;2.35;0.47;;;;;;;8.49;51.92;100243.28;6290266;22;20533;-92
2023/12/16 07:29:48;;;;;;;0.77;0.30;;;;;;;8.77;51.19;100214.22;6290119;22;20023;-94
2023/12/16 07:32:16;;;;;;;1.00;0.40;;;;;;;8.63;50.98;100254.84;6286591;22;20015;-91
2023/12/16 07:34:42;;;;;;;0.70;0.55;;;;;;;8.07;51.55;100136.16;6289038;22;20019;-93
2023/12/16 07:37:07;;;;;;;2.67;0.52;;;;;;;8.91;51.27;100296.50;6286446;22;20047;-93
2023/12/16 07:39:33;;;;;;;1.80;0.43;;;;;;;8.82;50.35;100208.03;6273882;22;20404;-92
2023/12/16 07:41:59;;;;;;;0.95;0.68;;;;;;;8.80;49.88;100208.94;6255477;22;20076;-92
2023/12/16 07:44:27;;;;;;;0.52;0.30;;;;;;;9.35;50.31;100328.53;6254362;22;20087;-91
2023/12/16 07:46:52;;;;;;;0.70;0.40;;;;;;;8.13;50.99;100137.94;6253842;22;20030;-93
2023/12/16 07:49:24;;;;;;;1.35;0.30;;;;;;;8.24;51.55;100138.88;6250558;22;20095;-92
2023/12/16 07:51:50;;;;;;;2.50;0.40;;;;;;;8.85;50.68;100254.94;6250576;22;20016;-91
2023/12/16 07:54:16;;;;;;;1.27;0.60;;;;;;;9.00;51.64;100260.31;6282299;22;20012;-92
2023/12/16 07:56:42;;;;;;;1.08;0.55;;;;;;;8.67;51.80;100157.59;6257041;22;20023;-90
2023/12/16 07:59:08;;;;;;;1.63;0.40;;;;;;;9.09;51.38;100258.56;6253817;22;20023;-91
2023/12/16 08:01:38;;;;;;;0.80;0.68;;;;;;;9.79;51.28;100317.09;6251627;22;20016;-93
2023/12/16 08:04:19;;;;;;;2.28;0.50;;;;;;;9.79;51.06;100316.22;6254120;22;20357;-92
2023/12/16 08:06:58;;;;;;;1.95;0.40;;;;;;;9.29;51.87;100320.53;6255349;22;20050;-88
2023/12/16 08:09:27;;;;;;;1.15;0.63;;;;;;;8.78;51.75;100161.19;6254427;22;20118;-89
2023/12/16 08:11:58;;;;;;;0.55;0.22;;;;;;;10.38;50.38;100336.59;6254408;22;20110;-92
2023/12/16 08:14:38;;;;;;;0.70;0.30;;;;;;;10.24;49.99;100303.81;6255688;22;20019;-95
2023/12/16 08:17:25;;;;;;;0.85;0.50;;;;;;;9.63;50.60;100187.81;6253825;22;20022;-93
2023/12/16 08:19:56;;;;;;;3.35;0.50;;;;;;;9.79;50.62;100279.91;6260232;22;20024;-93
2023/12/16 08:22:23;;;;;;;1.33;0.68;;;;;;;10.50;50.67;100348.13;6258368;22;20057;-91
2023/12/16 08:24:49;;;;;;;2.75;0.30;;;;;;;9.33;50.71;100194.03;6254299;22;20077;-94
2023/12/16 08:30:43;;;;;;;0.25;0.22;;;;;;;9.10;50.02;100168.31;6232579;22;20129;-92
2023/12/16 08:33:26;;;;;;;2.22;0.65;;;;;;;9.82;50.34;100276.34;6162801;23;20017;-92
2023/12/16 08:36:03;;;;;;;3.72;0.30;;;;;;;9.12;50.33;100158.59;6162789;23;20491;-93
2023/12/16 08:38:59;;;;;;;1.52;0.43;;;;;;;9.52;50.64;100208.16;6162984;23;20017;-95
2023/12/16 08:41:45;;;;;;;0.47;0.30;;;;;;;11.04;49.60;100370.19;6204198;23;20017;-92
2023/12/16 08:44:37;;;;;;;1.88;0.77;;;;;;;11.30;49.24;100360.31;6193651;23;20004;-94
2023/12/16 08:47:18;;;;;;;;;;;;;;;;;;;;;
2023/12/16 08:50:14;;;;;;;1.38;0.47;;;;;;;10.47;52.12;100307.34;6190785;23;20101;-93
2023/12/16 08:52:44;;;;;;;0.88;0.40;;;;;;;9.88;52.24;100210.81;6191269;23;20081;-93
2023/12/16 08:55:29;;;;;;;1.90;0.47;;;;;;;10.38;51.52;100253.28;6191991;23;20024;-92
2023/12/16 08:57:56;;;;;;;1.10;0.70;;;;;;;10.75;51.58;100339.19;6188153;23;20036;-93
2023/12/16 09:00:25;;;;;;;0.85;0.52;;;;;;;10.88;52.36;100350.69;6190901;23;20235;-92
2023/12/16 09:02:51;;;;;;;0.70;0.45;;;;;;;10.21;51.77;100224.03;6195591;23;20017;-91
2023/12/16 09:05:19;;;;;;;1.02;0.43;;;;;;;10.73;51.31;100298.41;6192516;23;20551;-92
2023/12/16 09:07:45;;;;;;;1.88;1.05;;;;;;;10.09;51.65;100214.34;6193705;23;20059;-92
2023/12/16 09:10:25;;;;;;;1.08;0.40;;;;;;;11.43;51.56;100389.56;6251719;22;20076;-93
2023/12/16 09:12:51;;;;;;;1.88;0.60;;;;;;;10.85;51.23;100260.22;6285008;22;20050;-92
2023/12/16 09:15:22;;;;;;;2.85;0.70;;;;;;;11.71;52.27;100361.00;6283395;22;20038;-93
2023/12/16 09:17:48;;;;;;;1.42;0.40;;;;;;;11.33;51.56;100329.22;6287450;22;20011;-92
2023/12/16 09:20:20;;;;;;;1.13;0.55;;;;;;;11.54;51.17;100369.06;6284261;22;20057;-93
2023/12/16 09:22:47;;;;;;;2.65;0.55;;;;;;;10.24;52.40;100243.53;6282440;22;20019;-93
2023/12/16 09:25:15;;;;;;;1.17;0.40;;;;;;;10.40;51.73;100230.25;6284454;22;20019;-94
2023/12/16 09:27:43;;;;;;;2.22;0.60;;;;;;;10.88;53.12;100350.69;6284787;22;20515;-91
2023/12/16 09:30:11;;;;;;;1.20;0.50;;;;;;;10.27;51.47;100263.91;6281219;22;20388;-90
2023/12/16 09:32:43;;;;;;;1.60;0.50;;;;;;;10.78;50.45;100251.38;6285857;22;20047;-93
2023/12/16 09:35:09;;;;;;;2.03;0.50;;;;;;;10.22;50.09;100224.03;6289533;22;20019;-93
2023/12/16 09:37:35;;;;;;;2.20;0.50;;;;;;;10.60;50.42;100283.38;6285633;22;20038;-92
2023/12/16 09:40:01;;;;;;;3.33;0.40;;;;;;;11.37;49.72;100369.16;6267700;22;20019;-93
2023/12/16 09:42:29;;;;;;;2.63;0.45;;;;;;;10.32;49.15;100195.69;6258291;22;20035;-93
2023/12/16 09:44:57;;;;;;;2.17;0.50;;;;;;;11.39;49.06;100327.41;6257869;22;20374;-92
2023/12/16 09:47:28;;;;;;;1.48;0.70;;;;;;;10.96;48.96;100382.63;6251287;22;20030;-94
2023/12/16 09:50:02;;;;;;;2.65;0.50;;;;;;;10.83;48.89;100310.78;6256100;22;20019;-94
2023/12/16 09:52:28;;;;;;;1.80;0.45;;;;;;;10.69;49.85;100340.13;6253960;22;20511;-93
2023/12/16 09:54:54;;;;;;;0.63;0.50;;;;;;;10.80;49.83;100270.91;6254652;22;20016;-94
2023/12/16 09:57:34;;;;;;;0.65;0.30;;;;;;;10.37;49.78;100276.34;6255710;22;20046;-94
2023/12/16 10:00:05;;;;;;;3.88;1.95;;;;;;;10.01;48.72;100150.56;6253961;22;20020;-93
2023/12/16 10:02:31;;;;;;;1.42;0.50;;;;;;;10.67;50.52;100242.56;6253705;22;20012;-91
2023/12/16 10:05:00;;;;;;;1.30;0.60;;;;;;;10.93;49.17;100329.38;6255064;22;20612;-92
2023/12/16 10:07:26;;;;;;;1.00;0.40;;;;;;;10.45;50.03;100245.31;6253994;22;20015;-90
2023/12/16 10:09:54;;;;;;;1.65;0.60;;;;;;;9.66;49.47;100187.81;6254822;22;20015;-92
2023/12/16 10:12:23;;;;;;;6.15;0.93;;;;;;;10.22;49.65;100183.28;6254711;22;20012;-91
2023/12/16 10:14:51;;;;;;;5.07;0.55;;;;;;;10.68;49.51;100229.25;6253980;22;20020;-91
2023/12/16 10:17:21;;;;;;;6.57;2.38;;;;;;;10.25;49.08;100160.22;6250884;22;20042;-92
2023/12/16 10:20:05;;;;;;;3.55;1.23;;;;;;;10.61;47.71;100168.09;6253100;22;20458;-92
2023/12/16 10:22:33;;;;;;;4.40;1.30;;;;;;;11.46;47.17;100281.19;6250936;22;20345;-89
2023/12/16 10:25:06;;;;;;;4.72;1.00;;;;;;;11.23;47.33;100262.72;6252970;22;20019;-92
2023/12/16 10:27:58;;;;;;;4.97;0.98;;;;;;;11.39;47.34;100251.97;6254220;22;20385;-92
2023/12/16 10:30:25;;;;;;;5.45;1.85;;;;;;;10.95;47.39;100168.81;6172126;22;20087;-93
2023/12/16 10:33:02;;;;;;;2.15;0.40;;;;;;;10.69;47.33;100203.50;6254322;22;20016;-92
2023/12/16 10:35:28;;;;;;;2.45;0.90;;;;;;;11.34;48.58;100253.75;6252185;22;20027;-91
2023/12/16 10:41:15;;;;;;;5.38;0.70;;;;;;;11.12;48.44;100245.88;6232787;22;20024;-94
2023/12/16 10:43:41;;;;;;;5.85;1.70;;;;;;;11.26;48.16;100252.03;6253684;22;20019;-92
2023/12/16 10:46:07;;;;;;;2.47;0.77;;;;;;;10.76;47.78;100170.69;6253613;22;20027;-92
2023/12/16 10:48:42;;;;;;;2.10;0.70;;;;;;;11.67;47.94;100268.63;6254764;22;20027;-93
2023/12/16 10:51:11;;;;;;;4.22;0.50;;;;;;;10.77;47.71;100131.66;6254663;22;20016;-95
2023/12/16 10:53:44;;;;;;;2.45;0.85;;;;;;;10.82;48.74;100194.59;6252210;22;20020;-91
2023/12/16 10:56:16;;;;;;;2.47;0.88;;;;;;;10.61;49.73;100192.06;6252236;22;20043;-90
2023/12/16 10:59:00;;;;;;;2.08;0.70;;;;;;;10.21;49.73;100131.00;6254098;22;20038;-93
2023/12/16 11:01:32;;;;;;;1.20;0.63;;;;;;;10.56;49.68;100103.38;6279228;22;20057;-94
2023/12/16 11:04:10;;;;;;;1.42;0.65;;;;;;;10.38;51.10;100162.88;6253830;22;20023;-92
2023/12/16 11:06:44;;;;;;;2.95;0.80;;;;;;;10.65;49.90;100169.88;6255459;22;20024;-93
2023/12/16 11:09:24;;;;;;;;;;;;;;;;;;;;;
2023/12/16 11:11:57;;;;;;;2.53;0.80;;;;;;;10.30;53.15;100192.16;6277879;22;20016;-91
2023/12/16 11:14:27;;;;;;;5.32;0.98;;;;;;;10.93;53.05;100252.19;6256013;22;20019;-94
2023/12/16 11:17:08;;;;;;;3.03;0.63;;;;;;;10.77;54.10;100284.19;6254579;22;20023;-91
2023/12/16 11:19:44;;;;;;;2.60;0.50;;;;;;;9.76;54.13;100087.72;6255242;22;20106;-93
2023/12/16 11:22:10;;;;;;;;;;;;;;;10.84;54.32;100266.44;6253517;22;20077;-94
2023/12/16 11:24:41;;;;;;;4.22;0.85;;;;;;;10.52;54.06;100171.69;6254463;22;19950;-94
2023/12/16 11:27:07;;;;;;;1.33;0.40;;;;;;;9.65;55.33;100101.06;6254839;22;20111;-92
2023/12/16 11:29:41;;;;;;;1.08;0.40;;;;;;;10.12;55.61;100155.84;6253977;22;20434;-89
2023/12/16 11:32:09;;;;;;;1.75;0.52;;;;;;;9.42;55.39;100038.25;6251334;22;20505;-90
2023/12/16 11:34:44;;;;;;;3.92;0.47;;;;;;;9.82;55.61;100116.94;6254513;22;20019;-90
2023/12/16 11:37:11;;;;;;;3.47;0.50;;;;;;;10.20;55.12;100230.25;6253541;22;20027;-93
2023/12/16 11:39:41;;;;;;;2.83;0.70;;;;;;;9.31;55.50;100016.16;6252986;22;20027;-88
2023/12/16 11:42:52;;;;;;;1.73;0.30;;;;;;;10.31;53.91;100153.16;6254134;22;20016;-94
2023/12/16 11:45:39;;;;;;;3.63;1.15;;;;;;;9.71;54.57;100094.84;6248975;22;20077;-91
2023/12/16 11:48:24;;;;;;;1.23;0.50;;;;;;;9.30;54.86;100053.31;6162484;23;20029;-92